HRHO2: North Canadian River

Data processed at Thu Jan 04 2018 23:24


All information presented herein is the property of the government of the United States of America and may be revised or deleted at any time without prior notice.
Dissemination of this information without the expressed written consent of the Public Affairs Office, Tulsa District U.S. Army Corps of Engineers is strictly prohibited.
These data are gathered electronically and, as presented, have not undergone any form of quality control. These data are not guaranteed to be valid or correct.
Go to home page.
Go to station list.

Upstream stations:

Downstream station:
Previous Day
Next Day
Current Day
    
SHEF ID:       HRHO2     North Canadian River near Harrah
STATION TYPE:  

                STAGE  RIV-FLOW  WTR-TEMP   DIS-OXY        PH   CONDUCT  BAT-LOAD
                   ft       cfs         F      mg/l        su   umho/cm      volt
              Ccp-Rev   Ccp-Rev   Ccp-Rev   Ccp-Rev   Ccp-Rev   Ccp-Rev   Ccp-Rev
(US/Central)
01/02 00:00      4.17        81     31.28     12.92      7.56      1048     12.54
01/02 01:00      4.19        83     31.08     12.89      7.57      1050     12.48
01/02 02:00      4.23        89     30.94     12.88      7.55      1055     12.48
01/02 03:00      4.25        92     30.92     12.89      7.57      1060     12.48
01/02 04:00      4.27        95     30.85     12.91      7.55      1064     12.42
01/02 05:00      4.30       100     30.87     12.91      7.53      1063     12.48
01/02 06:00      4.33       105     30.97     12.89      7.54      1056     12.42
01/02 07:00      4.34       106     31.08     12.84      7.57      1046     12.42
01/02 08:00      4.36       110     31.23     12.80      7.56      1036     12.42
01/02 09:00      4.36       110     31.53     12.79      7.54      1037     12.42
01/02 10:00      4.36       110     31.82     12.83      7.59      1050     12.54
01/02 11:00      4.33       105     32.16     12.93      7.59      1066     12.71
01/02 12:00      4.29        98     32.59     13.03      7.61      1075     13.00
01/02 13:00      4.29        98     33.17     13.10      7.64      1076     13.24
01/02 14:00      4.28        97     33.73     13.16      7.68      1076     13.36
01/02 15:00      4.27        95     33.93     13.17      7.68      1075     13.24
01/02 16:00      4.26        94     34.12     13.19      7.71      1070     13.07
01/02 17:00      4.26        94     34.16     13.14      7.71      1063     12.89
01/02 18:00      4.25        92     34.14     13.03      7.75      1056     12.71
01/02 19:00      4.25        92     34.12     12.91      7.73      1048     12.65
01/02 20:00      4.25        92     34.16     12.76      7.70      1041     12.60
01/02 21:00      4.24        91     33.94     12.67      7.67      1036     12.54
01/02 22:00      4.25        92     33.64     12.58      7.68      1032     12.48
01/02 23:00      4.26        94     33.31     12.53      7.63      1030     12.48